Cutler, Ohio
Current Conditions -  °F | °C
As of 10:53 PM on Saturday 25 Oct 2014 (Local Time) from KPKB Reporting Station
Clear Clear  
Wind Chill: 62°   Ceiling: Unl
Heat Index: 62°   Visibility: 10mi
Dew Point: 54°   Wind: 10mph
Humidity: 75%   Direction: 260°W
Pressure: 29.89"   Gusts: NA
Location:  39.35°N, 81.79°W
Report Text: KPKB 260253Z AUTO 26009KT 10SM CLR 17/12 A2989 RMK AO2 SLP119 T01670122 53007
Loading
Personal Weather Stations






























Interactive Weather Map
Tropical Storm Tracking
New forecast layout! Learn more

10-Day Weather Forecast

Advertisements
Track Severe Weather on mobile